4OK2 weather

CLOSED Candy Lake Estate Airport
Avant, Oklahoma, United States

Public forecast

Using degrees Fahrenheit for public forecast. Weather courtesy of forecast.io.

METAR (pilot weather report)

Closest report is Bartlesville Municipal Airport, 16.3 nm (30.2 km) N. Retrieved 2019/01/17 08:12 UTC (24 minutes ago):

KBVO 170812Z AUTO 00000KT 2 1/2SM BR OVC002 07/06 A3001 RMK AO2 T00720061

TAF (pilot weather forecast)

Closest forecast is Bartlesville Municipal Airport, 16.3 nm (30.2 km) N. Retrieved 2019/01/17 06:39 UTC (2 hours ago):

TAF KBVO 170536Z 1706/1806 07004KT 2SM -DZ BR OVC002 TEMPO 1707/1710 1SM -DZ BR FM171000 35005KT 2SM BR OVC004 FM171600 34006KT P6SM OVC015 FM172000 33006KT P6SM SCT030 FM180000 00000KT P6SM SKC